createdAt,value
2022-08-07T00:01:12.667Z,24.60
2022-08-07T00:03:50.791Z,24.60
2022-08-07T00:06:17.614Z,24.50
2022-08-07T00:08:47.261Z,24.40
2022-08-07T00:11:14.115Z,24.40
2022-08-07T00:13:47.933Z,24.30
2022-08-07T00:16:17.384Z,24.20
2022-08-07T00:18:48.292Z,24.20
2022-08-07T00:21:56.166Z,24.10
2022-08-07T00:24:01.863Z,24.10
2022-08-07T00:26:58.848Z,24.00
2022-08-07T00:29:15.515Z,24.00
2022-08-07T00:31:43.136Z,23.90
2022-08-07T00:34:09.988Z,23.90
2022-08-07T00:36:38.606Z,23.90
2022-08-07T00:39:09.653Z,23.90
2022-08-07T00:41:53.771Z,23.90
2022-08-07T00:44:28.369Z,23.90
2022-08-07T00:46:55.508Z,24.00
2022-08-07T00:49:24.937Z,23.90
2022-08-07T00:52:09.904Z,23.90
2022-08-07T00:54:36.687Z,23.80
2022-08-07T00:57:07.555Z,23.80
2022-08-07T00:59:39.009Z,23.70
2022-08-07T01:02:08.960Z,23.70
2022-08-07T01:04:43.468Z,23.70
2022-08-07T01:07:11.039Z,23.70
2022-08-07T01:10:05.711Z,23.70
2022-08-07T01:12:29.886Z,23.80
2022-08-07T01:15:01.641Z,23.80
2022-08-07T01:17:30.977Z,23.80
2022-08-07T01:19:58.822Z,23.80
2022-08-07T01:22:29.310Z,23.80
2022-08-07T01:24:56.506Z,23.80
2022-08-07T01:27:23.245Z,23.70
2022-08-07T01:29:58.687Z,23.60
2022-08-07T01:32:27.374Z,23.60
2022-08-07T01:34:55.642Z,23.60
2022-08-07T01:37:24.133Z,23.50
2022-08-07T01:39:50.943Z,23.40
2022-08-07T01:42:40.180Z,23.40
2022-08-07T01:45:04.932Z,23.40
2022-08-07T01:48:18.475Z,23.50
2022-08-07T01:50:28.924Z,23.50
2022-08-07T01:52:56.857Z,23.50
2022-08-07T01:55:26.502Z,23.40
2022-08-07T01:58:06.428Z,23.40
2022-08-07T02:00:45.354Z,23.40
2022-08-07T02:03:21.302Z,23.40
2022-08-07T02:06:08.863Z,23.30
2022-08-07T02:08:54.181Z,23.20
2022-08-07T02:11:30.957Z,23.20
2022-08-07T02:14:07.962Z,23.10
2022-08-07T02:16:35.080Z,23.00
2022-08-07T02:19:05.740Z,23.00
2022-08-07T02:21:56.666Z,23.00
2022-08-07T02:24:25.399Z,23.00
2022-08-07T02:26:56.389Z,23.00
2022-08-07T02:29:26.909Z,23.00
2022-08-07T02:31:53.589Z,22.90
2022-08-07T02:34:21.495Z,22.80
2022-08-07T02:36:50.564Z,22.80
2022-08-07T02:39:43.935Z,22.80
2022-08-07T02:42:10.101Z,22.80
2022-08-07T02:44:47.904Z,22.70
2022-08-07T02:47:19.704Z,22.70
2022-08-07T02:49:57.826Z,22.60
2022-08-07T02:52:49.000Z,22.60
2022-08-07T02:55:28.746Z,22.50
2022-08-07T02:58:10.754Z,22.60
2022-08-07T03:00:39.264Z,22.60
2022-08-07T03:03:06.385Z,22.60
2022-08-07T03:05:35.912Z,22.60
2022-08-07T03:08:10.095Z,22.60
2022-08-07T03:10:46.182Z,22.70
2022-08-07T03:13:14.527Z,22.70
2022-08-07T03:15:55.867Z,22.70
2022-08-07T03:18:34.162Z,22.70
2022-08-07T03:21:02.443Z,22.70
2022-08-07T03:23:34.066Z,22.70
2022-08-07T03:26:21.031Z,22.60
2022-08-07T03:28:50.340Z,22.60
2022-08-07T03:31:24.485Z,22.50
2022-08-07T03:33:56.768Z,22.50
2022-08-07T03:36:25.921Z,22.60
2022-08-07T03:38:53.764Z,22.60
2022-08-07T03:41:20.468Z,22.70
2022-08-07T03:44:07.208Z,22.70
2022-08-07T03:46:37.512Z,22.70
2022-08-07T03:49:24.731Z,22.70
2022-08-07T03:51:56.052Z,22.60
2022-08-07T03:54:35.171Z,22.60
2022-08-07T03:57:07.159Z,22.60
2022-08-07T03:59:34.366Z,22.60
2022-08-07T04:02:01.104Z,22.60
2022-08-07T04:04:28.130Z,22.60
2022-08-07T04:07:00.157Z,22.60
2022-08-07T04:09:38.099Z,22.70
2022-08-07T04:12:24.849Z,22.70
2022-08-07T04:14:54.897Z,22.60
2022-08-07T04:17:22.976Z,22.60
2022-08-07T04:20:10.676Z,22.60
2022-08-07T04:22:37.360Z,22.70
2022-08-07T04:25:11.894Z,22.70
2022-08-07T04:27:44.264Z,22.60
2022-08-07T04:30:21.003Z,22.70
2022-08-07T04:32:48.532Z,22.70
2022-08-07T04:35:25.413Z,22.70
2022-08-07T04:38:00.880Z,22.70
2022-08-07T04:40:32.374Z,22.70
2022-08-07T04:43:02.033Z,22.70
2022-08-07T04:46:00.335Z,22.70
2022-08-07T04:48:29.132Z,22.80
2022-08-07T04:51:03.432Z,22.70
2022-08-07T04:54:01.756Z,22.70
2022-08-07T04:58:14.421Z,22.70
2022-08-07T05:00:11.673Z,22.70
2022-08-07T05:02:05.863Z,22.80
2022-08-07T05:04:44.080Z,22.90
2022-08-07T05:07:20.533Z,22.90
2022-08-07T05:10:11.009Z,23.00
2022-08-07T05:12:51.434Z,23.00
2022-08-07T05:15:23.699Z,22.90
2022-08-07T05:17:55.175Z,22.80
2022-08-07T05:20:27.132Z,22.80
2022-08-07T05:22:55.167Z,22.80
2022-08-07T05:25:35.593Z,22.80
2022-08-07T05:28:20.363Z,22.80
2022-08-07T05:30:49.475Z,22.80
2022-08-07T05:33:18.051Z,22.90
2022-08-07T05:35:47.819Z,22.90
2022-08-07T05:38:58.279Z,22.90
2022-08-07T05:41:01.695Z,23.00
2022-08-07T05:43:50.173Z,23.30
2022-08-07T05:46:29.446Z,23.40
2022-08-07T05:48:58.312Z,23.50
2022-08-07T05:51:26.401Z,23.60
2022-08-07T05:54:13.457Z,23.60
2022-08-07T05:56:45.759Z,23.70
2022-08-07T05:59:18.676Z,23.80
2022-08-07T06:01:45.832Z,23.70
2022-08-07T06:04:14.432Z,23.70
2022-08-07T06:06:46.430Z,23.80
2022-08-07T06:09:15.147Z,23.90
2022-08-07T06:11:42.480Z,24.00
2022-08-07T06:14:11.417Z,24.00
2022-08-07T06:16:40.893Z,24.00
2022-08-07T06:19:07.629Z,24.10
2022-08-07T06:22:17.020Z,24.10
2022-08-07T06:24:45.968Z,24.10
2022-08-07T06:27:44.037Z,24.20
2022-08-07T06:30:32.335Z,24.20
2022-08-07T06:32:57.837Z,24.30
2022-08-07T06:35:24.570Z,24.30
2022-08-07T06:38:08.148Z,24.30
2022-08-07T06:40:45.965Z,24.20
2022-08-07T06:43:21.449Z,24.10
2022-08-07T06:45:49.126Z,24.10
2022-08-07T06:48:15.966Z,24.20
2022-08-07T06:50:51.639Z,24.30
2022-08-07T06:53:49.175Z,24.40
2022-08-07T06:56:07.249Z,24.60
2022-08-07T06:58:34.704Z,24.70
2022-08-07T07:01:03.157Z,24.80
2022-08-07T07:03:47.838Z,25.00
2022-08-07T07:06:26.091Z,25.20
2022-08-07T07:08:53.334Z,25.40
2022-08-07T07:12:08.781Z,25.60
2022-08-07T07:14:08.324Z,25.80
2022-08-07T07:16:45.241Z,25.90
2022-08-07T07:19:56.340Z,25.90
2022-08-07T07:22:34.104Z,26.00
2022-08-07T07:25:02.584Z,25.90
2022-08-07T07:27:55.318Z,26.00
2022-08-07T07:30:32.610Z,26.10
2022-08-07T07:33:04.481Z,26.20
2022-08-07T07:35:33.548Z,26.30
2022-08-07T07:38:02.718Z,26.20
2022-08-07T07:40:32.271Z,26.20
2022-08-07T07:43:11.697Z,26.20
2022-08-07T07:46:37.765Z,26.30
2022-08-07T07:48:35.699Z,26.40
2022-08-07T07:51:07.675Z,26.60
2022-08-07T07:53:42.987Z,26.70
2022-08-07T07:56:19.026Z,26.70
2022-08-07T07:58:58.667Z,26.70
2022-08-07T08:02:05.152Z,26.80
2022-08-07T08:04:13.372Z,27.00
2022-08-07T08:06:50.668Z,27.10
2022-08-07T08:09:19.171Z,27.40
2022-08-07T08:11:59.655Z,27.60
2022-08-07T08:14:36.683Z,27.80
2022-08-07T08:17:56.010Z,28.40
2022-08-07T08:20:22.349Z,28.70
2022-08-07T08:23:00.381Z,29.00
2022-08-07T08:25:49.363Z,29.40
2022-08-07T08:28:23.906Z,29.50
2022-08-07T08:31:04.037Z,29.30
2022-08-07T08:33:33.101Z,29.10
2022-08-07T08:36:00.137Z,29.20
2022-08-07T08:38:29.843Z,29.70
2022-08-07T08:41:07.880Z,30.20
2022-08-07T08:43:42.745Z,31.00
2022-08-07T08:46:20.321Z,32.10
2022-08-07T08:48:54.231Z,32.90
2022-08-07T08:51:49.589Z,33.60
2022-08-07T08:54:22.819Z,34.30
2022-08-07T08:56:52.591Z,35.10
2022-08-07T08:59:22.364Z,35.60
2022-08-07T09:01:53.426Z,35.60
2022-08-07T09:04:34.977Z,35.50
2022-08-07T09:07:16.623Z,35.80
2022-08-07T09:09:57.154Z,36.30
2022-08-07T09:12:32.898Z,37.30
2022-08-07T09:16:23.679Z,37.90
2022-08-07T09:18:25.148Z,38.60
2022-08-07T09:21:00.649Z,39.60
2022-08-07T09:24:32.814Z,39.90
2022-08-07T09:26:47.643Z,39.30
2022-08-07T09:30:06.308Z,38.90
2022-08-07T09:32:43.995Z,39.10
2022-08-07T09:36:01.041Z,38.90
2022-08-07T09:38:23.286Z,38.40
2022-08-07T09:41:03.555Z,38.30
2022-08-07T09:44:06.115Z,38.30
2022-08-07T09:47:50.581Z,37.90
2022-08-07T09:50:01.911Z,37.70
2022-08-07T09:52:35.419Z,37.00
2022-08-07T09:55:05.040Z,36.80
2022-08-07T09:57:47.106Z,36.70
2022-08-07T10:00:15.048Z,36.70
2022-08-07T10:03:07.796Z,36.80
2022-08-07T10:05:59.860Z,36.50
2022-08-07T10:08:49.624Z,36.40
2022-08-07T10:12:00.545Z,36.70
2022-08-07T10:14:55.177Z,36.30
2022-08-07T10:18:01.042Z,36.10
2022-08-07T10:20:36.732Z,36.00
2022-08-07T10:23:07.592Z,35.80
2022-08-07T10:25:42.920Z,35.70
2022-08-07T10:28:12.538Z,35.00
2022-08-07T10:30:57.847Z,34.20
2022-08-07T10:34:06.244Z,33.70
2022-08-07T10:36:58.439Z,33.90
2022-08-07T10:39:42.007Z,33.80
2022-08-07T10:42:36.877Z,34.20
2022-08-07T10:45:44.862Z,34.50
2022-08-07T10:48:09.730Z,34.60
2022-08-07T10:50:36.720Z,33.90
2022-08-07T10:53:22.586Z,33.50
2022-08-07T10:56:09.616Z,33.50
2022-08-07T10:58:46.087Z,33.50
2022-08-07T11:01:15.144Z,33.70
2022-08-07T11:04:23.334Z,33.80
2022-08-07T11:07:14.932Z,33.90
2022-08-07T11:10:09.562Z,33.90
2022-08-07T11:12:43.542Z,34.10
2022-08-07T11:15:14.658Z,34.20
2022-08-07T11:17:46.947Z,34.10
2022-08-07T11:20:18.415Z,33.70
2022-08-07T11:22:48.261Z,33.50
2022-08-07T11:25:23.917Z,33.20
2022-08-07T11:28:09.132Z,33.10
2022-08-07T11:30:51.335Z,33.20
2022-08-07T11:33:54.149Z,33.40
2022-08-07T11:36:11.908Z,33.20
2022-08-07T11:38:58.936Z,32.90
2022-08-07T11:42:01.837Z,32.70
2022-08-07T11:44:21.146Z,32.40
2022-08-07T11:46:57.067Z,32.40
2022-08-07T11:50:30.186Z,32.60
2022-08-07T11:52:37.686Z,32.50
2022-08-07T11:55:18.842Z,32.50
2022-08-07T11:58:01.603Z,32.50
2022-08-07T12:00:34.632Z,32.50
2022-08-07T12:03:41.390Z,32.60
2022-08-07T12:06:39.248Z,32.80
2022-08-07T12:09:16.526Z,32.50
2022-08-07T12:12:10.174Z,32.40
2022-08-07T12:15:01.525Z,32.50
2022-08-07T12:17:58.652Z,32.40
2022-08-07T12:20:36.679Z,32.00
2022-08-07T12:23:37.377Z,31.80
2022-08-07T12:26:28.958Z,31.90
2022-08-07T12:28:57.584Z,31.90
2022-08-07T12:31:52.851Z,31.80
2022-08-07T12:34:14.446Z,31.60
2022-08-07T12:36:42.252Z,31.10
2022-08-07T12:39:42.969Z,30.90
2022-08-07T12:42:03.131Z,30.90
2022-08-07T12:44:33.736Z,30.90
2022-08-07T12:47:21.912Z,30.90
2022-08-07T12:50:04.608Z,31.00
2022-08-07T12:52:35.355Z,31.00
2022-08-07T12:55:17.916Z,31.20
2022-08-07T12:58:00.795Z,31.30
2022-08-07T13:00:34.684Z,31.60
2022-08-07T13:04:02.454Z,31.90
2022-08-07T13:06:21.506Z,32.10
2022-08-07T13:08:57.208Z,31.90
2022-08-07T13:12:02.647Z,32.00
2022-08-07T13:14:29.202Z,32.10
2022-08-07T13:17:02.393Z,32.30
2022-08-07T13:19:50.342Z,32.40
2022-08-07T13:22:31.453Z,32.50
2022-08-07T13:25:03.137Z,32.50
2022-08-07T13:28:11.030Z,32.40
2022-08-07T13:30:40.254Z,32.30
2022-08-07T13:34:14.929Z,32.30
2022-08-07T13:36:05.594Z,32.30
2022-08-07T13:38:39.368Z,32.20
2022-08-07T13:41:11.663Z,32.20
2022-08-07T13:43:41.700Z,32.20
2022-08-07T13:46:20.973Z,32.10
2022-08-07T13:48:58.582Z,31.90
2022-08-07T13:51:28.219Z,31.90
2022-08-07T13:54:22.404Z,31.90
2022-08-07T13:56:55.824Z,31.90
2022-08-07T13:59:27.067Z,32.10
2022-08-07T14:02:05.328Z,32.10
2022-08-07T14:04:36.028Z,32.10
2022-08-07T14:07:09.194Z,32.10
2022-08-07T14:10:02.303Z,32.10
2022-08-07T14:12:54.916Z,31.90
2022-08-07T14:15:38.438Z,31.70
2022-08-07T14:18:23.766Z,31.50
2022-08-07T14:20:59.222Z,31.40
2022-08-07T14:24:00.282Z,31.50
2022-08-07T14:26:30.070Z,31.60
2022-08-07T14:31:59.340Z,31.80
2022-08-07T14:34:29.704Z,31.50
2022-08-07T14:36:58.221Z,31.40
2022-08-07T14:40:17.991Z,31.20
2022-08-07T14:42:20.711Z,31.10
2022-08-07T14:44:52.878Z,31.20
2022-08-07T14:47:20.082Z,31.30
2022-08-07T14:49:57.896Z,31.40
2022-08-07T14:52:28.835Z,31.40
2022-08-07T14:54:55.984Z,31.40
2022-08-07T14:57:25.415Z,31.40
2022-08-07T15:00:12.155Z,31.30
2022-08-07T15:02:56.677Z,31.30
2022-08-07T15:05:24.009Z,31.00
2022-08-07T15:07:51.874Z,30.90
2022-08-07T15:10:20.258Z,31.00
2022-08-07T15:15:52.859Z,31.30
2022-08-07T15:18:34.747Z,31.30
2022-08-07T15:27:05.382Z,31.40
2022-08-07T15:30:08.692Z,31.30
2022-08-07T15:32:39.686Z,31.20
2022-08-07T15:35:17.057Z,31.10
2022-08-07T15:43:53.741Z,31.10
2022-08-07T15:49:12.746Z,31.30
2022-08-07T15:54:25.844Z,31.20
2022-08-07T15:56:53.105Z,31.30
2022-08-07T15:59:20.335Z,31.20
2022-08-07T16:02:06.966Z,31.20
2022-08-07T16:04:35.958Z,31.20
2022-08-07T16:08:33.394Z,31.10
2022-08-07T16:09:57.228Z,31.10
2022-08-07T16:12:41.529Z,31.20
2022-08-07T16:15:58.832Z,31.20
2022-08-07T16:18:50.748Z,31.20
2022-08-07T16:22:01.529Z,31.20
2022-08-07T16:24:34.833Z,31.20
2022-08-07T16:27:18.031Z,31.10
2022-08-07T16:30:09.739Z,31.00
2022-08-07T16:32:55.649Z,30.90
2022-08-07T16:35:52.390Z,30.80
2022-08-07T16:38:57.342Z,30.60
2022-08-07T16:41:13.087Z,30.50
2022-08-07T16:44:05.789Z,30.50
2022-08-07T16:47:05.785Z,30.40
2022-08-07T16:50:20.185Z,30.20
2022-08-07T16:52:52.616Z,30.00
2022-08-07T16:55:22.178Z,30.00
2022-08-07T16:58:02.754Z,29.90
2022-08-07T17:00:40.331Z,29.80
2022-08-07T17:03:07.154Z,29.70
2022-08-07T17:06:19.133Z,29.70
2022-08-07T17:09:04.349Z,29.60
2022-08-07T17:12:05.170Z,29.50
2022-08-07T17:14:32.049Z,29.40
2022-08-07T17:17:01.075Z,29.20
2022-08-07T17:20:02.033Z,29.10
2022-08-07T17:22:51.191Z,29.10
2022-08-07T17:25:45.734Z,29.10
2022-08-07T17:28:11.253Z,29.00
2022-08-07T17:30:59.392Z,29.00
2022-08-07T17:34:10.163Z,28.90
2022-08-07T17:36:20.747Z,28.80
2022-08-07T17:38:50.287Z,28.80
2022-08-07T17:42:02.490Z,28.70
2022-08-07T17:44:34.210Z,28.60
2022-08-07T17:47:17.162Z,28.60
2022-08-07T17:50:02.204Z,28.50
2022-08-07T17:52:39.654Z,28.40
2022-08-07T17:55:13.220Z,28.40
2022-08-07T17:57:56.379Z,28.30
2022-08-07T18:00:33.418Z,28.30
2022-08-07T18:03:25.637Z,28.30
2022-08-07T18:06:02.106Z,28.30
2022-08-07T18:09:01.139Z,28.30
2022-08-07T18:12:08.214Z,28.30
2022-08-07T18:14:23.879Z,28.20
2022-08-07T18:17:05.242Z,28.10
2022-08-07T18:21:11.697Z,27.90
2022-08-07T18:22:26.374Z,27.90
2022-08-07T18:25:01.681Z,27.80
2022-08-07T18:28:05.305Z,27.80
2022-08-07T18:30:37.374Z,27.80
2022-08-07T18:33:16.406Z,27.80
2022-08-07T18:36:01.831Z,27.70
2022-08-07T18:38:59.265Z,27.60
2022-08-07T18:41:46.516Z,27.50
2022-08-07T18:44:31.843Z,27.40
2022-08-07T18:47:07.971Z,27.30
2022-08-07T18:50:30.075Z,27.30
2022-08-07T18:52:55.125Z,27.20
2022-08-07T18:55:40.524Z,27.30
2022-08-07T18:58:15.123Z,27.30
2022-08-07T19:01:01.245Z,27.30
2022-08-07T19:03:40.549Z,27.30
2022-08-07T19:06:33.845Z,27.40
2022-08-07T19:09:09.037Z,27.40
2022-08-07T19:12:04.582Z,27.40
2022-08-07T19:14:51.240Z,27.30
2022-08-07T19:18:04.037Z,27.30
2022-08-07T19:20:06.187Z,27.30
2022-08-07T19:23:18.840Z,27.30
2022-08-07T19:26:23.776Z,27.20
2022-08-07T19:30:54.612Z,27.20
2022-08-07T19:31:58.625Z,27.20
2022-08-07T19:34:33.992Z,27.10
2022-08-07T19:37:10.194Z,27.10
2022-08-07T19:39:57.379Z,27.10
2022-08-07T19:42:40.080Z,27.00
2022-08-07T19:45:09.544Z,27.00
2022-08-07T19:47:37.703Z,27.00
2022-08-07T19:50:44.552Z,26.90
2022-08-07T19:52:58.631Z,26.70
2022-08-07T19:55:26.022Z,26.70
2022-08-07T19:58:13.325Z,26.60
2022-08-07T20:00:54.302Z,26.70
2022-08-07T20:03:33.786Z,26.60
2022-08-07T20:06:02.479Z,26.60
2022-08-07T20:08:34.333Z,26.60
2022-08-07T20:11:10.178Z,26.50
2022-08-07T20:13:55.894Z,26.30
2022-08-07T20:16:35.584Z,26.20
2022-08-07T20:19:10.471Z,26.20
2022-08-07T20:21:41.873Z,26.10
2022-08-07T20:24:15.584Z,26.00
2022-08-07T20:26:49.921Z,25.90
2022-08-07T20:29:48.119Z,25.80
2022-08-07T20:32:04.547Z,25.70
2022-08-07T20:34:49.617Z,25.60
2022-08-07T20:37:20.754Z,25.50
2022-08-07T20:40:03.961Z,25.40
2022-08-07T20:42:32.353Z,25.40
2022-08-07T20:45:01.056Z,25.40
2022-08-07T20:47:55.195Z,25.30
2022-08-07T20:50:15.697Z,25.30
2022-08-07T20:52:51.118Z,25.20
2022-08-07T20:55:20.704Z,25.30
2022-08-07T20:58:03.630Z,25.20
2022-08-07T21:00:31.961Z,25.30
2022-08-07T21:02:58.940Z,25.30
2022-08-07T21:05:51.093Z,25.30
2022-08-07T21:08:37.876Z,25.20
2022-08-07T21:11:10.560Z,25.10
2022-08-07T21:13:57.635Z,25.10
2022-08-07T21:16:25.999Z,25.10
2022-08-07T21:18:57.308Z,25.00
2022-08-07T21:21:27.280Z,25.00
2022-08-07T21:23:54.511Z,24.90
2022-08-07T21:26:27.521Z,24.90
2022-08-07T21:29:00.714Z,24.80
2022-08-07T21:31:49.351Z,24.70
2022-08-07T21:34:31.731Z,24.70
2022-08-07T21:37:22.784Z,24.70
2022-08-07T21:39:57.912Z,24.70
2022-08-07T21:42:48.385Z,24.60
2022-08-07T21:46:03.207Z,24.60
2022-08-07T21:48:27.733Z,24.60
2022-08-07T21:50:59.392Z,24.60
2022-08-07T21:53:31.534Z,24.60
2022-08-07T21:56:36.144Z,24.50
2022-08-07T21:59:07.603Z,24.50
2022-08-07T22:02:07.043Z,24.50
2022-08-07T22:04:27.643Z,24.50
2022-08-07T22:06:58.919Z,24.40
2022-08-07T22:09:26.462Z,24.50
2022-08-07T22:12:05.215Z,24.50
2022-08-07T22:15:00.602Z,24.50
2022-08-07T22:17:35.781Z,24.50
2022-08-07T22:20:06.898Z,24.60
2022-08-07T22:22:44.823Z,24.60
2022-08-07T22:25:36.498Z,24.60
2022-08-07T22:28:26.838Z,24.50
2022-08-07T22:30:53.388Z,24.40
2022-08-07T22:33:52.478Z,24.30
2022-08-07T22:36:26.627Z,24.20
2022-08-07T22:38:59.737Z,24.00
2022-08-07T22:42:02.376Z,24.00
2022-08-07T22:44:18.364Z,24.00
2022-08-07T22:47:06.154Z,24.00
2022-08-07T22:49:51.758Z,24.00
2022-08-07T22:52:37.613Z,24.00
2022-08-07T22:55:17.203Z,24.00
2022-08-07T22:57:59.066Z,24.00
2022-08-07T23:00:29.072Z,23.90
2022-08-07T23:03:05.254Z,23.80
2022-08-07T23:06:10.075Z,23.70
2022-08-07T23:08:24.231Z,23.60
2022-08-07T23:11:15.457Z,23.60
2022-08-07T23:13:48.833Z,23.60
2022-08-07T23:16:54.714Z,23.60
2022-08-07T23:19:51.819Z,23.60
2022-08-07T23:22:37.585Z,23.50
2022-08-07T23:25:17.517Z,23.40
2022-08-07T23:28:21.521Z,23.40
2022-08-07T23:31:07.069Z,23.30
2022-08-07T23:34:34.106Z,23.30
2022-08-07T23:36:37.218Z,23.30
2022-08-07T23:39:08.322Z,23.30
2022-08-07T23:41:47.617Z,23.20
2022-08-07T23:44:32.456Z,23.30
2022-08-07T23:47:01.041Z,23.30
2022-08-07T23:49:49.774Z,23.20
2022-08-07T23:53:11.980Z,23.10
2022-08-07T23:55:52.025Z,23.00
2022-08-07T23:58:21.629Z,22.90
